Time;durP1;ratioP1;P1;durP2;ratioP2;P2;SDS_P1;SDS_P2;PMS_P1;PMS_P2;Temp;Humidity;BMP_temperature;BMP_pressure;BME280_temperature;BME280_humidity;BME280_pressure;Samples;Min_cycle;Max_cycle;Signal;HPM_P1;HPM_P2
2023/02/17 00:01:52;;;;;;;11.83;6.20;;;;;;;0.40;73.60;100807.52;1810153;79;21188;-82
2023/02/17 00:04:59;;;;;;;12.88;6.58;;;;;;;0.68;73.02;100796.66;1780387;79;21188;-81
2023/02/17 00:08:05;;;;;;;11.78;6.08;;;;;;;0.57;73.61;100798.35;1775660;81;21189;-82
2023/02/17 00:11:12;;;;;;;19.48;7.30;;;;;;;0.40;74.15;100792.23;1775426;80;21542;-82
2023/02/17 00:14:19;;;;;;;13.65;6.55;;;;;;;0.43;74.98;100796.56;1773473;81;21200;-82
2023/02/17 00:17:25;;;;;;;12.73;6.40;;;;;;;0.61;74.68;100785.94;1775380;81;21327;-82
2023/02/17 00:20:31;;;;;;;11.60;6.30;;;;;;;0.60;74.90;100784.19;1779487;80;21706;-82
2023/02/17 00:23:38;;;;;;;15.13;6.58;;;;;;;0.38;75.46;100781.20;1789157;80;21130;-82
2023/02/17 00:26:38;;;;;;;13.60;6.55;;;;;;;0.63;75.24;100773.22;1789896;80;21197;-81
2023/02/17 00:29:30;;;;;;;10.90;6.85;;;;;;;0.53;75.89;100776.15;1790083;80;21158;-82
2023/02/17 00:32:36;;;;;;;14.05;5.95;;;;;;;0.14;77.00;100766.13;1789723;80;21201;-82
2023/02/17 00:35:47;;;;;;;14.13;7.12;;;;;;;0.14;77.20;100767.02;1785739;80;21189;-81
2023/02/17 00:38:53;;;;;;;14.65;7.65;;;;;;;0.29;77.18;100758.92;1779764;79;21175;-82
2023/02/17 00:41:58;;;;;;;15.38;7.58;;;;;;;0.08;77.48;100748.56;1782488;79;21201;-82
2023/02/17 00:45:04;;;;;;;24.67;10.63;;;;;;;0.01;78.28;100749.07;1775460;80;21718;-82
2023/02/17 00:48:11;;;;;;;31.23;13.90;;;;;;;-0.01;78.54;100742.42;1784700;79;21161;-82
2023/02/17 00:51:17;;;;;;;32.73;14.03;;;;;;;-0.01;78.80;100739.73;1779461;79;21153;-82
2023/02/17 00:54:22;;;;;;;31.05;13.72;;;;;;;-0.07;79.35;100740.14;1788370;80;21138;-82
2023/02/17 00:57:31;;;;;;;25.82;12.55;;;;;;;-0.10;79.56;100733.11;1789648;80;21181;-82
2023/02/17 01:00:35;;;;;;;34.50;13.05;;;;;;;-0.11;79.81;100739.95;1804156;79;21244;-82
2023/02/17 01:03:40;;;;;;;29.10;12.15;;;;;;;-0.16;79.96;100725.94;1811277;79;21707;-82
2023/02/17 01:06:47;;;;;;;22.13;10.68;;;;;;;-0.11;79.92;100723.33;1811299;79;21192;-82
2023/02/17 01:09:53;;;;;;;18.37;9.88;;;;;;;-0.19;80.08;100716.70;1799229;79;21155;-81
2023/02/17 01:13:00;;;;;;;18.12;10.20;;;;;;;-0.12;80.09;100715.37;1810594;79;21695;-82
2023/02/17 01:16:06;;;;;;;21.90;10.03;;;;;;;-0.18;80.16;100701.84;1811345;79;21169;-82
2023/02/17 01:19:13;;;;;;;30.08;16.90;;;;;;;-0.08;80.24;100692.70;1801586;79;21224;-81
2023/02/17 01:22:20;;;;;;;21.85;10.90;;;;;;;-0.28;80.68;100690.81;1778560;80;21701;-82
2023/02/17 01:25:26;;;;;;;16.23;8.98;;;;;;;-0.29;80.71;100686.38;1776077;79;21145;-82
2023/02/17 01:28:34;;;;;;;20.45;10.50;;;;;;;-0.20;80.28;100680.03;1792198;79;21149;-82
2023/02/17 01:31:39;;;;;;;20.32;10.43;;;;;;;-0.44;81.57;100673.92;1748890;81;21189;-82
2023/02/17 01:34:47;;;;;;;16.27;8.25;;;;;;;-0.46;81.86;100671.83;1775481;80;21724;-82
2023/02/17 01:37:52;;;;;;;16.25;8.33;;;;;;;-0.18;81.30;100656.63;1747742;81;21213;-81
2023/02/17 01:40:58;;;;;;;16.82;7.60;;;;;;;-0.17;81.09;100654.30;1789067;80;21197;-82
2023/02/17 01:44:28;;;;;;;15.60;7.97;;;;;;;-0.38;81.05;100654.70;1789442;80;21273;-81
2023/02/17 01:47:35;;;;;;;15.10;8.30;;;;;;;-0.42;82.19;100649.66;1783968;79;21153;-82
2023/02/17 01:50:46;;;;;;;13.98;8.68;;;;;;;-0.59;82.29;100641.31;1789892;80;21166;-82
2023/02/17 01:53:57;;;;;;;14.20;7.67;;;;;;;-0.63;82.65;100645.14;1790018;80;21718;-81
2023/02/17 01:56:56;;;;;;;18.37;8.78;;;;;;;-0.41;82.38;100642.83;1789576;80;21189;-82
2023/02/17 02:00:02;;;;;;;18.12;9.28;;;;;;;-0.26;81.46;100631.08;1789865;80;21169;-82
2023/02/17 02:03:08;;;;;;;20.08;10.03;;;;;;;-0.45;81.48;100635.91;1789536;80;21146;-81
2023/02/17 02:06:21;;;;;;;18.98;10.00;;;;;;;-0.68;83.10;100621.73;1769567;80;21194;-82
2023/02/17 02:09:38;;;;;;;20.65;11.00;;;;;;;-0.69;83.31;100619.53;1787641;80;21848;-81
2023/02/17 02:12:40;;;;;;;19.02;9.88;;;;;;;-0.66;83.11;100625.17;1787898;79;21749;-81
2023/02/17 02:15:37;;;;;;;23.22;9.88;;;;;;;-0.61;82.88;100621.72;1793675;79;21776;-82
2023/02/17 02:19:22;;;;;;;20.37;10.28;;;;;;;-0.53;82.92;100626.13;1800347;79;21184;-82
2023/02/17 02:22:46;;;;;;;29.35;13.25;;;;;;;-0.06;81.36;100623.05;1804455;79;21193;-82
2023/02/17 02:26:09;;;;;;;36.63;13.15;;;;;;;0.04;80.77;100620.61;1785136;80;21217;-81
2023/02/17 02:29:42;;;;;;;33.55;12.63;;;;;;;0.09;80.48;100618.96;1789922;80;21146;-82
2023/02/17 02:32:58;;;;;;;32.88;14.20;;;;;;;0.13;79.98;100604.34;1790044;80;21153;-82
2023/02/17 02:36:38;;;;;;;46.15;16.82;;;;;;;-0.13;80.76;100608.78;1790142;80;21189;-82
2023/02/17 02:39:46;;;;;;;57.08;20.60;;;;;;;0.10;80.05;100612.16;1785714;79;21235;-82
2023/02/17 02:42:54;;;;;;;71.17;26.73;;;;;;;0.02;80.20;100598.34;1745434;81;21730;-82
2023/02/17 02:46:01;;;;;;;56.68;20.55;;;;;;;0.02;80.34;100597.00;1775050;81;21715;-82
2023/02/17 02:49:07;;;;;;;55.58;20.55;;;;;;;0.04;80.40;100602.27;1778569;80;21142;-82
2023/02/17 02:52:23;;;;;;;48.73;18.85;;;;;;;0.00;80.57;100586.84;1789988;80;21174;-82
2023/02/17 02:55:50;;;;;;;40.75;17.42;;;;;;;0.02;80.65;100588.94;1799908;79;21145;-81
2023/02/17 02:59:29;;;;;;;41.10;13.95;;;;;;;0.11;80.35;100586.98;1789917;80;21743;-82
2023/02/17 03:02:51;;;;;;;24.60;10.93;;;;;;;0.03;80.63;100589.30;1789850;80;21170;-82
2023/02/17 03:06:26;;;;;;;22.73;10.10;;;;;;;0.17;80.50;100583.86;1775066;80;21184;-82
2023/02/17 03:09:34;;;;;;;23.67;9.43;;;;;;;0.17;80.50;100578.48;1780003;80;21274;-82
2023/02/17 03:12:39;;;;;;;20.35;8.58;;;;;;;0.21;80.59;100567.04;1784094;80;21177;-81
2023/02/17 03:15:46;;;;;;;17.20;7.70;;;;;;;0.27;80.19;100564.41;1777878;79;21583;-81
2023/02/17 03:18:52;;;;;;;17.42;7.53;;;;;;;0.22;80.40;100556.16;1789263;79;21169;-82
2023/02/17 03:22:23;;;;;;;15.28;7.30;;;;;;;0.28;80.20;100548.15;1786052;79;21710;-82
2023/02/17 03:25:28;;;;;;;14.53;7.25;;;;;;;0.30;79.70;100548.92;1703947;82;21187;-82
2023/02/17 03:28:35;;;;;;;12.55;7.10;;;;;;;0.24;79.47;100546.17;1786440;80;21186;-82
2023/02/17 03:31:41;;;;;;;17.07;6.87;;;;;;;-0.32;81.36;100541.44;1796055;79;21239;-81
2023/02/17 03:34:48;;;;;;;12.63;7.47;;;;;;;-0.41;81.82;100540.70;1810023;79;21141;-82
2023/02/17 03:37:55;;;;;;;16.17;6.92;;;;;;;-0.23;82.26;100530.56;1785207;79;21734;-82
2023/02/17 03:41:01;;;;;;;17.15;7.90;;;;;;;-0.42;81.73;100526.02;1756384;80;21188;-82
2023/02/17 03:44:06;;;;;;;15.10;7.95;;;;;;;-0.50;82.55;100524.31;1775751;81;21141;-82
2023/02/17 03:47:12;;;;;;;16.15;7.17;;;;;;;-0.52;82.76;100518.56;1755523;81;21236;-82
2023/02/17 03:50:19;;;;;;;19.10;7.85;;;;;;;-0.24;82.09;100510.47;1758470;79;21153;-82
2023/02/17 03:53:26;;;;;;;17.95;7.97;;;;;;;0.01;80.73;100501.16;1795771;79;21193;-82
2023/02/17 03:56:32;;;;;;;15.88;7.72;;;;;;;0.12;79.89;100502.61;1788641;80;21184;-82
2023/02/17 03:59:32;;;;;;;19.35;8.38;;;;;;;0.14;79.70;100502.05;1747353;80;21185;-82
2023/02/17 04:02:38;;;;;;;16.60;9.15;;;;;;;0.17;79.48;100487.02;1788326;80;21697;-82
2023/02/17 04:05:44;;;;;;;17.32;8.23;;;;;;;0.22;79.10;100492.94;1789313;80;21201;-82
2023/02/17 04:08:49;;;;;;;15.80;7.42;;;;;;;0.26;78.84;100492.25;1788269;80;21749;-82
2023/02/17 04:11:54;;;;;;;23.57;8.88;;;;;;;0.30;78.51;100491.56;1788312;80;21177;-82
2023/02/17 04:15:01;;;;;;;19.98;8.48;;;;;;;0.17;78.60;100486.16;1789537;80;21150;-82
2023/02/17 04:18:07;;;;;;;18.27;8.23;;;;;;;0.08;79.05;100479.58;1788303;80;21162;-82
2023/02/17 04:21:14;;;;;;;18.37;8.05;;;;;;;0.17;78.63;100472.71;1787801;79;21169;-81
2023/02/17 04:24:21;;;;;;;19.82;8.75;;;;;;;0.17;78.57;100470.87;1788433;80;21711;-81
2023/02/17 04:27:26;;;;;;;18.67;8.03;;;;;;;0.18;78.51;100466.35;1788429;80;21217;-81
2023/02/17 04:30:32;;;;;;;13.15;8.23;;;;;;;0.21;78.19;100460.28;1756975;80;21181;-81
2023/02/17 04:33:39;;;;;;;14.95;7.67;;;;;;;0.03;78.24;100465.59;1775299;80;21165;-81
2023/02/17 04:36:38;;;;;;;13.22;8.45;;;;;;;-0.06;78.50;100463.53;1774607;80;21239;-82
2023/02/17 04:39:45;;;;;;;16.75;8.20;;;;;;;-0.01;78.29;100457.34;1773685;81;21243;-81
2023/02/17 04:42:51;;;;;;;15.78;8.68;;;;;;;0.03;77.93;100456.17;1774831;80;21177;-81
2023/02/17 04:45:56;;;;;;;20.10;9.00;;;;;;;0.11;77.49;100460.55;1759034;79;21409;-80
2023/02/17 04:49:04;;;;;;;15.35;7.80;;;;;;;-0.13;78.21;100460.89;1767721;80;21671;-81
2023/02/17 04:52:10;;;;;;;16.45;7.87;;;;;;;-0.17;78.51;100456.20;1788469;80;21221;-81
2023/02/17 04:55:16;;;;;;;18.05;7.85;;;;;;;-0.21;78.38;100462.75;1788063;80;21221;-81
2023/02/17 04:58:22;;;;;;;16.02;7.92;;;;;;;-0.15;78.20;100458.77;1806329;79;21200;-82
2023/02/17 05:01:28;;;;;;;18.12;8.28;;;;;;;-0.11;77.92;100461.16;1787434;79;21711;-82
2023/02/17 05:04:33;;;;;;;17.15;7.72;;;;;;;-0.11;77.93;100464.33;1789721;80;21676;-82
2023/02/17 05:07:39;;;;;;;18.70;7.90;;;;;;;-0.08;77.70;100460.95;1788037;80;21197;-82
2023/02/17 05:10:46;;;;;;;16.17;7.33;;;;;;;-0.14;77.87;100457.80;1788393;80;21165;-82
2023/02/17 05:13:52;;;;;;;14.18;6.83;;;;;;;-0.09;77.78;100461.92;1789740;80;21166;-82
2023/02/17 05:16:58;;;;;;;13.20;6.67;;;;;;;-0.04;77.69;100455.75;1788769;80;21189;-82
2023/02/17 05:20:05;;;;;;;18.35;7.62;;;;;;;0.06;76.91;100454.63;1789894;80;21220;-82
2023/02/17 05:23:11;;;;;;;12.50;6.75;;;;;;;-0.02;77.00;100449.77;1789748;80;21169;-82
2023/02/17 05:26:18;;;;;;;14.68;6.85;;;;;;;-0.01;77.01;100450.63;1740972;82;21920;-82
2023/02/17 05:29:24;;;;;;;12.93;7.35;;;;;;;-0.12;77.33;100450.52;1754962;80;21800;-83
2023/02/17 05:32:30;;;;;;;11.60;6.45;;;;;;;-0.13;77.65;100448.80;1780137;80;21224;-82
2023/02/17 05:35:35;;;;;;;15.53;7.37;;;;;;;0.07;77.18;100440.20;1769831;79;21292;-82
2023/02/17 05:38:47;;;;;;;14.78;7.08;;;;;;;-0.02;77.42;100438.16;1768962;79;21122;-81
2023/02/17 05:41:51;;;;;;;11.85;6.35;;;;;;;0.01;77.34;100429.88;1770699;79;21217;-82
2023/02/17 05:44:57;;;;;;;17.00;7.62;;;;;;;0.14;76.76;100432.56;1784573;79;21710;-82
2023/02/17 05:48:02;;;;;;;17.12;7.90;;;;;;;0.11;76.96;100424.23;1791857;79;21150;-82
2023/02/17 05:51:10;;;;;;;14.00;7.12;;;;;;;0.09;76.90;100420.78;1801171;79;21164;-81
2023/02/17 05:54:17;;;;;;;15.72;7.40;;;;;;;0.14;76.72;100417.31;1782011;79;21177;-82
2023/02/17 05:57:23;;;;;;;17.02;6.97;;;;;;;0.12;76.83;100412.99;1701931;82;21241;-82
2023/02/17 06:00:29;;;;;;;12.05;6.10;;;;;;;0.08;76.90;100415.52;1778025;80;21714;-83
2023/02/17 06:03:35;;;;;;;15.25;7.33;;;;;;;0.15;77.19;100410.95;1774338;80;21153;-83
2023/02/17 06:06:34;;;;;;;15.65;6.95;;;;;;;0.24;77.17;100404.93;1775393;80;21193;-82
2023/02/17 06:09:28;;;;;;;15.65;6.58;;;;;;;0.30;77.29;100405.47;1778831;79;21252;-83
2023/02/17 06:12:14;;;;;;;14.13;6.22;;;;;;;0.29;77.42;100405.95;1785646;80;22173;-83
2023/02/17 06:15:06;;;;;;;14.93;5.83;;;;;;;0.43;77.37;100403.63;1788714;79;21257;-83
2023/02/17 06:18:12;;;;;;;12.20;6.60;;;;;;;0.41;77.48;100395.64;1772900;80;21150;-83
2023/02/17 06:21:18;;;;;;;14.35;6.85;;;;;;;0.58;76.84;100396.28;1780393;79;21174;-83
2023/02/17 06:24:23;;;;;;;13.48;5.78;;;;;;;0.47;76.97;100396.57;1776446;79;21138;-82
2023/02/17 06:27:31;;;;;;;12.45;6.15;;;;;;;0.48;77.22;100402.81;1779311;79;21735;-83
2023/02/17 06:30:37;;;;;;;10.63;5.85;;;;;;;0.60;77.20;100389.80;1782900;79;21187;-83
2023/02/17 06:33:44;;;;;;;14.80;5.87;;;;;;;0.84;76.49;100383.11;1777118;79;21225;-83
2023/02/17 06:36:51;;;;;;;18.90;6.30;;;;;;;1.12;75.78;100387.81;1783830;79;21182;-83
2023/02/17 06:39:56;;;;;;;9.55;5.50;;;;;;;1.17;74.95;100386.48;1769610;79;21189;-83
2023/02/17 06:43:03;;;;;;;10.78;5.70;;;;;;;1.24;74.94;100392.30;1749722;80;21220;-83
2023/02/17 06:46:03;;;;;;;9.93;5.70;;;;;;;1.28;74.84;100391.09;1770904;79;21516;-83
2023/02/17 06:49:09;;;;;;;11.60;6.05;;;;;;;1.30;74.59;100393.67;1767303;80;21165;-83
2023/02/17 06:52:15;;;;;;;8.90;5.35;;;;;;;1.36;74.64;100385.97;1770514;79;21252;-83
2023/02/17 06:55:21;;;;;;;13.22;5.55;;;;;;;1.45;74.33;100385.77;1777793;79;21212;-83
2023/02/17 06:58:27;;;;;;;11.25;5.15;;;;;;;1.52;74.31;100395.12;1771617;79;21240;-83
2023/02/17 07:01:33;;;;;;;10.23;5.50;;;;;;;1.61;73.80;100386.83;1773581;79;21225;-83
2023/02/17 07:04:39;;;;;;;8.50;5.15;;;;;;;1.60;73.80;100385.97;1775013;79;21142;-83
2023/02/17 07:07:46;;;;;;;9.60;5.10;;;;;;;1.74;73.66;100378.14;1768825;79;21208;-83
2023/02/17 07:10:46;;;;;;;12.68;4.62;;;;;;;1.74;73.31;100380.38;1773593;80;21196;-83
2023/02/17 07:13:53;;;;;;;10.50;5.22;;;;;;;1.73;73.14;100377.78;1778153;79;21154;-83
2023/02/17 07:16:59;;;;;;;7.70;4.45;;;;;;;1.75;73.32;100374.00;1778908;79;21216;-82
2023/02/17 07:20:05;;;;;;;10.38;5.15;;;;;;;1.74;73.48;100372.29;1775997;79;21861;-81
2023/02/17 07:23:11;;;;;;;11.53;4.90;;;;;;;1.89;72.55;100366.19;1772546;79;21745;-81
2023/02/17 07:26:17;;;;;;;11.25;5.17;;;;;;;1.81;72.94;100367.76;1782354;79;21730;-82
2023/02/17 07:29:23;;;;;;;13.08;4.67;;;;;;;1.82;73.17;100357.33;1782095;79;21703;-82
2023/02/17 07:32:29;;;;;;;14.23;4.37;;;;;;;1.73;73.49;100354.86;1784580;80;21197;-82
2023/02/17 07:35:35;;;;;;;11.68;4.50;;;;;;;1.87;73.26;100357.83;1780870;79;21801;-82
2023/02/17 07:38:41;;;;;;;9.88;4.50;;;;;;;1.99;72.91;100361.78;1769525;79;21754;-82
2023/02/17 07:41:47;;;;;;;10.45;4.17;;;;;;;2.11;72.58;100363.14;1772649;79;21232;-81
2023/02/17 07:44:57;;;;;;;12.23;4.35;;;;;;;1.68;74.71;100359.25;1777338;79;22079;-81
2023/02/17 07:48:02;;;;;;;16.60;4.17;;;;;;;1.49;74.95;100363.85;1775431;79;21535;-82
2023/02/17 07:51:24;;;;;;;10.00;4.25;;;;;;;1.89;73.63;100358.59;1756638;79;21161;-82
2023/02/17 07:54:30;;;;;;;8.78;3.90;;;;;;;1.89;73.65;100361.28;1778537;80;21695;-82
2023/02/17 07:57:30;;;;;;;14.85;4.30;;;;;;;1.96;73.54;100352.58;1771910;79;21148;-82
2023/02/17 08:00:24;;;;;;;14.58;4.35;;;;;;;1.85;73.87;100356.61;1773583;80;21159;-82
2023/02/17 08:03:10;;;;;;;14.45;4.90;;;;;;;2.14;73.41;100348.06;1773891;79;21177;-82
2023/02/17 08:06:18;;;;;;;;;;;;;;;1.99;73.77;100344.75;1773621;79;21751;-81
2023/02/17 08:16:06;;;;;;;11.75;5.20;;;;;;;2.00;73.37;100345.11;1779343;79;21166;-82
2023/02/17 08:19:12;;;;;;;11.12;5.17;;;;;;;1.99;73.50;100346.09;1766504;79;21153;-82
2023/02/17 08:22:18;;;;;;;12.60;4.78;;;;;;;1.92;73.73;100351.09;1777440;79;21217;-81
2023/02/17 08:25:25;;;;;;;11.83;4.40;;;;;;;1.94;73.72;100340.20;1760123;79;21185;-82
2023/02/17 08:28:32;;;;;;;14.98;4.90;;;;;;;1.83;74.24;100334.27;1781909;79;21155;-82
2023/02/17 08:31:39;;;;;;;7.12;3.95;;;;;;;1.97;73.77;100325.10;1767355;79;21201;-82
2023/02/17 08:34:44;;;;;;;12.85;4.72;;;;;;;1.94;73.85;100321.32;1776501;79;21913;-83
2023/02/17 08:37:50;;;;;;;10.98;4.55;;;;;;;2.05;73.85;100319.97;1775317;79;21539;-82
2023/02/17 08:40:55;;;;;;;7.67;3.85;;;;;;;1.99;73.88;100315.07;1775056;80;21311;-83
2023/02/17 08:44:01;;;;;;;12.68;4.10;;;;;;;2.12;74.00;100319.87;1771646;80;22193;-82
2023/02/17 08:47:07;;;;;;;9.38;3.72;;;;;;;1.97;74.32;100312.97;1779923;79;21167;-83
2023/02/17 08:50:15;;;;;;;21.17;3.80;;;;;;;1.97;74.35;100311.13;1774940;79;21646;-83
2023/02/17 08:53:21;;;;;;;8.35;4.25;;;;;;;1.94;74.47;100309.18;1776358;79;21743;-82
2023/02/17 08:56:21;;;;;;;12.63;4.62;;;;;;;2.00;74.53;100316.28;1773064;79;21193;-82
2023/02/17 08:59:27;;;;;;;10.93;4.37;;;;;;;2.16;74.30;100306.96;1774229;79;21155;-82
2023/02/17 09:02:36;;;;;;;12.25;4.25;;;;;;;2.22;73.94;100311.39;1775316;79;21192;-83
2023/02/17 09:05:40;;;;;;;8.48;4.00;;;;;;;2.18;74.01;100308.58;1790397;79;21220;-83
2023/02/17 09:08:48;;;;;;;12.75;4.17;;;;;;;2.13;74.18;100305.39;1758308;80;21144;-83
2023/02/17 09:11:54;;;;;;;9.38;4.50;;;;;;;2.19;74.35;100315.68;1783126;80;21161;-83
2023/02/17 09:15:03;;;;;;;11.90;5.65;;;;;;;2.23;74.52;100307.71;1771425;79;21155;-84
2023/02/17 09:18:09;;;;;;;10.05;4.70;;;;;;;2.43;74.00;100305.23;1773751;80;21863;-83
2023/02/17 09:21:18;;;;;;;12.55;5.70;;;;;;;2.53;73.42;100311.11;1780854;79;21304;-83
2023/02/17 09:24:26;;;;;;;6.67;3.83;;;;;;;2.45;73.67;100310.05;1774435;79;21202;-83
2023/02/17 09:27:32;;;;;;;11.75;4.20;;;;;;;2.35;73.92;100309.05;1778238;79;21179;-83
2023/02/17 09:30:39;;;;;;;7.22;3.77;;;;;;;2.54;73.45;100310.61;1767773;79;21685;-83
2023/02/17 09:33:46;;;;;;;8.88;4.30;;;;;;;2.89;72.67;100305.53;1776789;79;21141;-83
2023/02/17 09:36:51;;;;;;;10.75;4.03;;;;;;;2.83;72.99;100297.94;1773453;79;21206;-83
2023/02/17 09:40:01;;;;;;;11.75;4.05;;;;;;;2.66;73.24;100291.22;1771800;79;21208;-82
2023/02/17 09:43:07;;;;;;;8.73;4.35;;;;;;;2.63;73.43;100285.56;1772589;79;21180;-81
2023/02/17 09:46:17;;;;;;;9.55;4.12;;;;;;;2.71;73.37;100283.09;1749710;79;21177;-82
2023/02/17 09:49:26;;;;;;;8.33;4.12;;;;;;;2.85;72.94;100281.09;1776288;79;21130;-82
2023/02/17 09:52:41;;;;;;;10.13;3.52;;;;;;;2.76;73.21;100282.71;1778720;79;21731;-81
2023/02/17 09:55:52;;;;;;;11.22;4.35;;;;;;;2.62;73.77;100277.09;1771578;79;21674;-83
2023/02/17 09:59:04;;;;;;;11.15;4.22;;;;;;;2.65;74.17;100274.66;1779439;79;21869;-83
2023/02/17 10:02:16;;;;;;;16.90;5.03;;;;;;;2.76;74.22;100263.80;1749915;79;21158;-82
2023/02/17 10:05:26;;;;;;;11.70;4.95;;;;;;;3.04;73.59;100264.56;1766320;78;21244;-82
2023/02/17 10:08:36;;;;;;;12.15;4.83;;;;;;;2.92;74.03;100263.41;1769811;79;21190;-82
2023/02/17 10:12:05;;;;;;;13.72;4.90;;;;;;;2.93;74.44;100257.01;1773448;79;21719;-83
2023/02/17 10:15:17;;;;;;;19.25;7.67;;;;;;;3.17;73.69;100256.28;1765505;79;21154;-83
2023/02/17 10:18:40;;;;;;;11.05;4.83;;;;;;;3.30;73.29;100254.25;1769819;79;21142;-83
2023/02/17 10:21:49;;;;;;;11.00;4.37;;;;;;;3.51;72.63;100243.42;1775919;79;21190;-83
2023/02/17 10:28:15;;;;;;;7.78;4.40;;;;;;;3.36;73.47;100237.99;1769426;79;21798;-83
2023/02/17 10:31:41;;;;;;;15.83;5.10;;;;;;;3.34;73.08;100235.93;1770909;79;21168;-83
2023/02/17 10:35:00;;;;;;;9.73;4.72;;;;;;;3.46;73.02;100228.59;1777776;79;21631;-82
2023/02/17 10:38:13;;;;;;;;;;;;;;;3.53;72.72;100226.59;1783392;79;22103;-83
2023/02/17 10:41:21;;;;;;;10.10;4.72;;;;;;;3.43;73.03;100219.38;1774734;79;20197;-83
2023/02/17 10:44:30;;;;;;;14.45;5.22;;;;;;;3.60;72.84;100226.89;1772644;79;21353;-83
2023/02/17 10:47:38;;;;;;;10.40;5.45;;;;;;;3.58;73.01;100213.52;1773424;80;21173;-83
2023/02/17 10:50:45;;;;;;;13.62;5.10;;;;;;;3.21;74.13;100210.94;1771369;79;21765;-83
2023/02/17 10:53:58;;;;;;;10.15;4.40;;;;;;;3.20;74.59;100210.08;1766526;79;22035;-83
2023/02/17 10:57:05;;;;;;;15.30;5.05;;;;;;;2.83;75.73;100217.75;1769493;80;21771;-84
2023/02/17 11:00:16;;;;;;;11.63;4.95;;;;;;;2.79;76.67;100221.20;1792168;79;21228;-82
2023/02/17 11:03:31;;;;;;;11.35;5.53;;;;;;;2.91;76.49;100214.38;1771783;79;21221;-83
2023/02/17 11:06:37;;;;;;;12.37;5.92;;;;;;;2.92;76.51;100214.77;1749460;80;21900;-83
2023/02/17 11:09:47;;;;;;;18.27;5.65;;;;;;;3.02;76.30;100217.91;1777718;79;21146;-83
2023/02/17 11:12:58;;;;;;;18.48;6.30;;;;;;;3.23;75.55;100216.55;1782742;79;21149;-82
2023/02/17 11:16:02;;;;;;;18.73;7.00;;;;;;;3.27;74.88;100218.01;1776427;79;21220;-83
2023/02/17 11:19:10;;;;;;;17.25;6.20;;;;;;;3.48;74.24;100211.72;1776914;79;21173;-84
2023/02/17 11:22:50;;;;;;;12.88;5.55;;;;;;;3.40;74.03;100210.20;1770926;79;21777;-83
2023/02/17 11:26:11;;;;;;;17.48;6.30;;;;;;;3.48;74.20;100207.67;1774668;79;21897;-83
2023/02/17 11:29:24;;;;;;;21.30;6.20;;;;;;;3.51;74.23;100202.86;1769139;79;21141;-83
2023/02/17 11:32:35;;;;;;;23.98;9.28;;;;;;;3.31;74.83;100205.95;1748987;79;21236;-85
2023/02/17 11:35:53;;;;;;;31.33;12.40;;;;;;;3.52;74.42;100200.51;1764323;79;21225;-84
2023/02/17 11:39:00;;;;;;;31.85;12.45;;;;;;;3.50;74.33;100203.00;1770057;79;21245;-82
2023/02/17 11:42:07;;;;;;;26.05;10.00;;;;;;;3.60;74.36;100199.84;1767269;79;21761;-83
2023/02/17 11:45:26;;;;;;;26.55;12.70;;;;;;;3.69;74.35;100192.28;1773180;79;21221;-84
2023/02/17 11:48:58;;;;;;;27.48;16.12;;;;;;;3.71;74.29;100195.69;1770858;79;21520;-84
2023/02/17 11:52:26;;;;;;;28.15;14.83;;;;;;;3.70;74.25;100192.63;1770447;79;21178;-84
2023/02/17 11:55:58;;;;;;;33.42;14.70;;;;;;;3.60;74.69;100186.33;1734451;80;21794;-84
2023/02/17 11:59:22;;;;;;;23.02;12.90;;;;;;;3.49;74.49;100191.83;1770871;79;21164;-84
2023/02/17 12:03:10;;;;;;;20.95;10.53;;;;;;;3.37;75.37;100197.80;1778773;79;21193;-84
2023/02/17 12:06:55;;;;;;;24.92;11.18;;;;;;;3.26;75.32;100191.97;1771907;79;22082;-82
2023/02/17 12:10:32;;;;;;;22.93;11.35;;;;;;;3.47;74.55;100191.09;1784587;80;21157;-82
2023/02/17 12:14:09;;;;;;;23.25;9.20;;;;;;;3.58;74.63;100183.77;1777068;79;21714;-82
2023/02/17 12:18:04;;;;;;;20.52;8.58;;;;;;;3.47;74.38;100192.44;1768067;79;21176;-82
2023/02/17 12:21:34;;;;;;;18.15;10.00;;;;;;;3.50;74.39;100190.33;1788361;79;21511;-82
2023/02/17 12:25:11;;;;;;;16.77;8.43;;;;;;;3.53;74.73;100198.19;1795922;79;21128;-82
2023/02/17 12:28:37;;;;;;;13.93;6.47;;;;;;;3.50;74.94;100188.12;1768256;79;21705;-82
2023/02/17 12:32:12;;;;;;;13.05;6.37;;;;;;;3.56;75.00;100180.81;1755530;81;21355;-82
2023/02/17 12:36:04;;;;;;;13.03;5.30;;;;;;;3.53;75.10;100179.76;1760092;80;21161;-82
2023/02/17 12:39:32;;;;;;;15.15;6.72;;;;;;;3.83;74.12;100177.53;1691162;83;21154;-82
2023/02/17 12:42:52;;;;;;;15.23;5.72;;;;;;;3.57;74.28;100184.73;1684952;83;21810;-82
2023/02/17 12:45:57;;;;;;;14.05;6.42;;;;;;;3.36;75.16;100195.23;1771811;80;21176;-82
2023/02/17 12:49:08;;;;;;;14.93;6.12;;;;;;;3.24;75.64;100197.98;1788444;79;21162;-82
2023/02/17 12:52:34;;;;;;;12.73;6.37;;;;;;;3.39;74.98;100200.35;1779516;79;21165;-81
2023/02/17 12:55:50;;;;;;;15.32;4.75;;;;;;;3.18;75.88;100192.27;1771940;80;21778;-82
2023/02/17 12:58:57;;;;;;;10.13;4.62;;;;;;;3.10;76.25;100202.87;1788792;79;21201;-82
2023/02/17 13:02:20;;;;;;;19.23;7.53;;;;;;;3.04;76.65;100204.25;1770766;80;21186;-82
2023/02/17 13:05:33;;;;;;;13.58;5.53;;;;;;;3.07;76.59;100199.95;1784641;80;21525;-82
2023/02/17 13:08:43;;;;;;;12.40;4.80;;;;;;;3.04;76.98;100199.70;1777491;79;21181;-82
2023/02/17 13:11:49;;;;;;;13.03;4.55;;;;;;;3.07;77.14;100206.70;1787479;80;21212;-82
2023/02/17 13:15:11;;;;;;;13.85;4.87;;;;;;;3.10;77.15;100205.56;1787028;80;21725;-82
2023/02/17 13:18:32;;;;;;;13.50;5.78;;;;;;;3.36;76.29;100211.45;1785905;79;21778;-82
2023/02/17 13:21:39;;;;;;;8.55;5.42;;;;;;;3.37;75.79;100204.55;1788451;79;21233;-82
2023/02/17 13:24:46;;;;;;;12.35;5.30;;;;;;;3.15;75.82;100212.29;1787120;80;21185;-82
2023/02/17 13:27:52;;;;;;;12.65;4.97;;;;;;;2.69;77.44;100208.10;1774957;80;21194;-82
2023/02/17 13:30:59;;;;;;;9.38;4.33;;;;;;;3.24;76.53;100209.30;1788270;80;21202;-82
2023/02/17 13:34:05;;;;;;;10.03;6.45;;;;;;;3.31;76.16;100204.59;1742268;80;21138;-82
2023/02/17 13:37:33;;;;;;;9.40;4.12;;;;;;;3.10;76.60;100206.42;1789273;79;21807;-82
2023/02/17 13:44:42;;;;;;;8.18;3.92;;;;;;;2.94;77.65;100209.58;1776931;79;21768;-82
2023/02/17 13:47:48;;;;;;;9.73;4.75;;;;;;;2.85;78.25;100212.20;1785037;80;21778;-82
2023/02/17 13:51:00;;;;;;;12.70;4.95;;;;;;;2.78;78.31;100201.92;1782296;80;21167;-82
2023/02/17 13:54:14;;;;;;;7.25;4.17;;;;;;;2.76;78.48;100203.88;1783483;80;21748;-82
2023/02/17 13:57:36;;;;;;;6.60;3.50;;;;;;;2.63;78.96;100211.30;1789404;79;21822;-82
2023/02/17 14:00:42;;;;;;;8.93;4.20;;;;;;;2.59;79.21;100210.33;1802105;79;21160;-82
2023/02/17 14:03:58;;;;;;;8.25;4.62;;;;;;;2.60;79.42;100215.62;1769562;80;21225;-82
2023/02/17 14:07:06;;;;;;;9.73;4.62;;;;;;;2.64;79.45;100217.58;1807007;79;21188;-82
2023/02/17 14:10:13;;;;;;;12.88;5.72;;;;;;;2.88;79.12;100216.02;1802076;79;21154;-82
2023/02/17 14:13:19;;;;;;;11.65;5.83;;;;;;;3.08;78.02;100217.38;1774570;81;21188;-82
2023/02/17 14:16:40;;;;;;;10.90;5.97;;;;;;;2.99;78.11;100213.25;1788363;79;21752;-82
2023/02/17 14:19:54;;;;;;;;;;;;;;;2.92;78.34;100218.83;1802508;79;21156;-82
2023/02/17 14:23:17;;;;;;;11.65;5.20;;;;;;;2.71;79.13;100219.63;1769710;81;20199;-82
2023/02/17 14:26:43;;;;;;;13.72;5.12;;;;;;;2.82;79.02;100209.26;1783421;79;21182;-82
2023/02/17 14:29:54;;;;;;;12.47;6.53;;;;;;;2.70;78.81;100203.55;1783221;79;21164;-82
2023/02/17 14:33:23;;;;;;;12.68;6.17;;;;;;;2.68;79.38;100209.09;1816994;79;21167;-82
2023/02/17 14:36:42;;;;;;;13.32;6.05;;;;;;;2.93;78.79;100208.38;1788644;79;21159;-82
2023/02/17 14:39:40;;;;;;;11.18;5.50;;;;;;;2.55;79.50;100217.84;1758352;81;21170;-82
2023/02/17 14:42:40;;;;;;;10.00;5.00;;;;;;;2.40;80.77;100220.44;1801768;79;21682;-82
2023/02/17 14:45:45;;;;;;;10.82;5.00;;;;;;;2.58;80.50;100220.77;1783112;79;21197;-82
2023/02/17 14:48:54;;;;;;;10.93;5.53;;;;;;;2.72;79.99;100225.38;1790474;79;21182;-82
2023/02/17 14:52:01;;;;;;;10.60;5.35;;;;;;;2.68;80.17;100227.11;1755735;79;21216;-82
2023/02/17 14:55:08;;;;;;;14.95;5.78;;;;;;;2.73;79.78;100229.82;1762635;80;21189;-82
2023/02/17 14:58:19;;;;;;;15.00;6.05;;;;;;;2.60;80.31;100231.82;1789323;79;21150;-82